createdAt,value
2017-06-09T00:00:08.051Z,98816
2017-06-09T00:02:36.136Z,98819
2017-06-09T00:05:04.195Z,98822
2017-06-09T00:07:32.283Z,98825
2017-06-09T00:10:01.123Z,98817
2017-06-09T00:12:29.256Z,98823
2017-06-09T00:14:58.098Z,98821
2017-06-09T00:17:26.258Z,98814
2017-06-09T00:19:54.384Z,98823
2017-06-09T00:22:22.475Z,98816
2017-06-09T00:24:51.346Z,98816
2017-06-09T00:27:19.507Z,98813
2017-06-09T00:29:47.591Z,98796
2017-06-09T00:32:15.671Z,98786
2017-06-09T00:34:44.514Z,98784
2017-06-09T00:37:19.802Z,98777
2017-06-09T00:39:48.646Z,98779
2017-06-09T00:42:16.718Z,98778
2017-06-09T00:44:44.782Z,98782
2017-06-09T00:47:12.851Z,98765
2017-06-09T00:49:40.909Z,98756
2017-06-09T00:52:08.984Z,98758
2017-06-09T00:54:37.050Z,98757
2017-06-09T00:57:05.154Z,98750
2017-06-09T00:59:33.711Z,98747
2017-06-09T01:02:01.774Z,98736
2017-06-09T01:04:29.842Z,98740
2017-06-09T01:06:57.907Z,98733
2017-06-09T01:09:26.746Z,98736
2017-06-09T01:11:54.810Z,98730
2017-06-09T01:14:22.886Z,98734
2017-06-09T01:16:50.949Z,98727
2017-06-09T01:19:19.047Z,98726
2017-06-09T01:21:47.110Z,98725
2017-06-09T01:24:15.165Z,98722
2017-06-09T01:26:43.238Z,98737
2017-06-09T01:29:11.346Z,98738
2017-06-09T01:31:39.499Z,98746
2017-06-09T01:34:07.562Z,98739
2017-06-09T01:36:35.635Z,98745
2017-06-09T01:39:03.702Z,98736
2017-06-09T01:41:31.793Z,98739
2017-06-09T01:44:00.094Z,98745
2017-06-09T01:46:28.166Z,98748
2017-06-09T01:48:56.239Z,98747
2017-06-09T01:51:24.306Z,98744
2017-06-09T01:53:52.379Z,98740
2017-06-09T01:56:20.487Z,98749
2017-06-09T01:58:49.347Z,98750
2017-06-09T02:01:17.535Z,98747
2017-06-09T02:03:45.623Z,98757
2017-06-09T02:06:14.502Z,98752
2017-06-09T02:08:42.567Z,98764
2017-06-09T02:11:10.635Z,98770
2017-06-09T02:13:38.702Z,98766
2017-06-09T02:16:06.847Z,98761
2017-06-09T02:18:34.911Z,98753
2017-06-09T02:21:02.987Z,98746
2017-06-09T02:23:31.053Z,98743
2017-06-09T02:25:59.126Z,98744
2017-06-09T02:28:27.197Z,98743
2017-06-09T02:30:55.271Z,98737
2017-06-09T02:33:23.343Z,98740
2017-06-09T02:35:51.402Z,98743
2017-06-09T02:38:19.482Z,98745
2017-06-09T02:40:47.542Z,98740
2017-06-09T02:43:15.610Z,98744
2017-06-09T02:45:43.809Z,98738
2017-06-09T02:48:11.910Z,98736
2017-06-09T02:50:39.976Z,98735
2017-06-09T02:53:08.046Z,98727
2017-06-09T02:55:36.341Z,98732
2017-06-09T02:58:04.421Z,98720
2017-06-09T03:00:32.506Z,98713
2017-06-09T03:03:01.338Z,98706
2017-06-09T03:05:29.434Z,98704
2017-06-09T03:07:57.930Z,98704
2017-06-09T03:10:26.002Z,98701
2017-06-09T03:12:54.079Z,98708
2017-06-09T03:15:22.150Z,98700
2017-06-09T03:17:50.226Z,98705
2017-06-09T03:20:18.298Z,98709
2017-06-09T03:22:46.395Z,98701
2017-06-09T03:25:15.222Z,98701
2017-06-09T03:27:43.290Z,98700
2017-06-09T03:30:11.466Z,98703
2017-06-09T03:32:57.354Z,98707
2017-06-09T03:35:25.478Z,98702
2017-06-09T03:37:53.541Z,98702
2017-06-09T03:40:21.614Z,98702
2017-06-09T03:42:49.790Z,98702
2017-06-09T03:45:17.901Z,98693
2017-06-09T03:47:45.974Z,98691
2017-06-09T03:50:14.033Z,98688
2017-06-09T03:52:42.869Z,98680
2017-06-09T03:55:10.953Z,98668
2017-06-09T03:57:39.023Z,98668
2017-06-09T04:00:07.094Z,98663
2017-06-09T04:02:35.223Z,98662
2017-06-09T04:05:03.287Z,98665
2017-06-09T04:07:32.127Z,98669
2017-06-09T04:10:00.207Z,98665
2017-06-09T04:12:28.278Z,98665
2017-06-09T04:14:56.371Z,98664
2017-06-09T04:17:24.543Z,98668
2017-06-09T04:19:52.646Z,98666
2017-06-09T04:22:20.782Z,98661
2017-06-09T04:24:48.866Z,98664
2017-06-09T04:27:16.935Z,98654
2017-06-09T04:29:45.785Z,98656
2017-06-09T04:32:13.895Z,98654
2017-06-09T04:34:41.970Z,98660
2017-06-09T04:37:10.050Z,98657
2017-06-09T04:39:38.214Z,98658
2017-06-09T04:42:06.286Z,98664
2017-06-09T04:44:34.362Z,98658
2017-06-09T04:47:02.436Z,98656
2017-06-09T04:49:30.814Z,98647
2017-06-09T04:51:58.882Z,98656
2017-06-09T04:54:26.974Z,98643
2017-06-09T04:56:55.808Z,98645
2017-06-09T04:59:23.882Z,98644
2017-06-09T05:01:51.955Z,98644
2017-06-09T05:04:20.062Z,98641
2017-06-09T05:06:48.158Z,98641
2017-06-09T05:09:16.988Z,98645
2017-06-09T05:11:45.061Z,98644
2017-06-09T05:14:13.166Z,98644
2017-06-09T05:16:41.246Z,98643
2017-06-09T05:19:09.331Z,98649
2017-06-09T05:21:37.390Z,98646
2017-06-09T05:24:05.475Z,98654
2017-06-09T05:26:33.535Z,98652
2017-06-09T05:29:01.618Z,98654
2017-06-09T05:31:29.683Z,98651
2017-06-09T05:33:57.779Z,98656
2017-06-09T05:36:26.610Z,98654
2017-06-09T05:38:54.684Z,98645
2017-06-09T05:41:22.989Z,98651
2017-06-09T05:43:51.066Z,98649
2017-06-09T05:46:19.144Z,98644
2017-06-09T05:48:47.210Z,98651
2017-06-09T05:51:15.286Z,98645
2017-06-09T05:53:43.358Z,98637
2017-06-09T05:56:11.434Z,98642
2017-06-09T05:58:39.593Z,98644
2017-06-09T06:01:07.658Z,98638
2017-06-09T06:03:35.734Z,98638
2017-06-09T06:06:03.802Z,98637
2017-06-09T06:08:32.034Z,98638
2017-06-09T06:11:00.854Z,98626
2017-06-09T06:13:28.943Z,98627
2017-06-09T06:15:57.006Z,98621
2017-06-09T06:18:25.231Z,98627
2017-06-09T06:20:54.099Z,98624
2017-06-09T06:23:22.185Z,98633
2017-06-09T06:25:50.254Z,98636
2017-06-09T06:28:19.094Z,98629
2017-06-09T06:30:47.205Z,98631
2017-06-09T06:33:15.262Z,98630
2017-06-09T06:35:43.343Z,98626
2017-06-09T06:38:11.423Z,98623
2017-06-09T06:40:39.529Z,98620
2017-06-09T06:43:08.362Z,98612
2017-06-09T06:45:36.427Z,98609
2017-06-09T06:48:04.514Z,98611
2017-06-09T06:50:32.870Z,98607
2017-06-09T06:53:00.946Z,98599
2017-06-09T06:55:29.018Z,98599
2017-06-09T06:57:57.091Z,98594
2017-06-09T07:00:25.160Z,98585
2017-06-09T07:02:53.263Z,98586
2017-06-09T07:05:21.327Z,98589
2017-06-09T07:07:49.396Z,98588
2017-06-09T07:10:17.469Z,98595
2017-06-09T07:12:45.562Z,98596
2017-06-09T07:15:13.639Z,98598
2017-06-09T07:17:41.704Z,98595
2017-06-09T07:20:09.796Z,98586
2017-06-09T07:22:37.850Z,98588
2017-06-09T07:25:05.946Z,98579
2017-06-09T07:27:34.794Z,98575
2017-06-09T07:30:02.854Z,98568
2017-06-09T07:32:30.927Z,98573
2017-06-09T07:34:58.994Z,98571
2017-06-09T07:37:27.107Z,98564
2017-06-09T07:39:55.174Z,98566
2017-06-09T07:42:23.263Z,98575
2017-06-09T07:44:51.834Z,98577
2017-06-09T07:47:19.902Z,98576
2017-06-09T07:49:47.974Z,98568
2017-06-09T07:52:16.893Z,98566
2017-06-09T07:54:45.735Z,98564
2017-06-09T07:57:13.798Z,98554
2017-06-09T07:59:41.870Z,98545
2017-06-09T08:02:09.979Z,98540
2017-06-09T08:04:38.062Z,98531
2017-06-09T08:07:06.223Z,98543
2017-06-09T08:09:34.361Z,98535
2017-06-09T08:12:02.471Z,98541
2017-06-09T08:14:30.549Z,98535
2017-06-09T08:16:58.730Z,98537
2017-06-09T08:19:26.790Z,98536
2017-06-09T08:21:54.865Z,98529
2017-06-09T08:24:22.946Z,98528
2017-06-09T08:26:51.023Z,98543
2017-06-09T08:29:19.301Z,98546
2017-06-09T08:31:47.384Z,98540
2017-06-09T08:34:16.233Z,98535
2017-06-09T08:36:44.306Z,98530
2017-06-09T08:39:12.422Z,98543
2017-06-09T08:41:41.250Z,98538
2017-06-09T08:44:09.326Z,98531
2017-06-09T08:46:37.390Z,98536
2017-06-09T08:49:05.467Z,98545
2017-06-09T08:51:33.539Z,98535
2017-06-09T08:54:01.772Z,98530
2017-06-09T08:56:30.606Z,98542
2017-06-09T08:58:58.674Z,98539
2017-06-09T09:01:26.750Z,98551
2017-06-09T09:03:54.817Z,98552
2017-06-09T09:06:22.907Z,98555
2017-06-09T09:08:51.015Z,98549
2017-06-09T09:11:19.085Z,98550
2017-06-09T09:13:47.146Z,98554
2017-06-09T09:16:15.247Z,98556
2017-06-09T09:18:44.078Z,98550
2017-06-09T09:21:12.195Z,98547
2017-06-09T09:23:40.270Z,98538
2017-06-09T09:26:08.329Z,98542
2017-06-09T09:28:36.406Z,98538
2017-06-09T09:31:04.475Z,98531
2017-06-09T09:33:33.336Z,98535
2017-06-09T09:36:01.396Z,98540
2017-06-09T09:38:29.471Z,98535
2017-06-09T09:40:57.542Z,98535
2017-06-09T09:43:25.626Z,98540
2017-06-09T09:45:53.711Z,98534
2017-06-09T09:48:21.783Z,98531
2017-06-09T09:50:49.858Z,98526
2017-06-09T09:53:17.918Z,98520
2017-06-09T09:55:46.053Z,98515
2017-06-09T09:58:14.869Z,98510
2017-06-09T10:00:43.166Z,98514
2017-06-09T10:03:11.246Z,98515
2017-06-09T10:05:39.331Z,98515
2017-06-09T10:08:07.397Z,98510
2017-06-09T10:10:35.471Z,98510
2017-06-09T10:13:03.581Z,98510
2017-06-09T10:15:31.646Z,98505
2017-06-09T10:18:00.524Z,98497
2017-06-09T10:20:29.366Z,98492
2017-06-09T10:22:57.442Z,98493
2017-06-09T10:25:25.510Z,98485
2017-06-09T10:27:53.582Z,98487
2017-06-09T10:30:21.790Z,98502
2017-06-09T10:32:49.866Z,98495
2017-06-09T10:35:17.978Z,98493
2017-06-09T10:37:46.046Z,98493
2017-06-09T10:40:14.110Z,98490
2017-06-09T10:42:42.950Z,98486
2017-06-09T10:45:11.053Z,98483
2017-06-09T10:47:39.110Z,98479
2017-06-09T10:50:07.290Z,98483
2017-06-09T10:52:35.387Z,98488
2017-06-09T10:55:04.232Z,98492
2017-06-09T10:57:32.315Z,98498
2017-06-09T11:00:00.418Z,98497
2017-06-09T11:02:29.255Z,98491
2017-06-09T11:04:57.331Z,98495
2017-06-09T11:07:25.397Z,98487
2017-06-09T11:09:53.507Z,98485
2017-06-09T11:12:21.566Z,98476
2017-06-09T11:14:49.666Z,98470
2017-06-09T11:17:17.727Z,98464
2017-06-09T11:19:45.789Z,98467
2017-06-09T11:22:13.886Z,98450
2017-06-09T11:24:41.955Z,98453
2017-06-09T11:27:10.026Z,98471
2017-06-09T11:29:38.086Z,98471
2017-06-09T11:32:06.179Z,98471
2017-06-09T11:34:35.022Z,98483
2017-06-09T11:37:03.117Z,98486
2017-06-09T11:39:31.210Z,98489
2017-06-09T11:42:00.050Z,98495
2017-06-09T11:44:28.126Z,98493
2017-06-09T11:46:56.203Z,98480
2017-06-09T11:49:24.278Z,98473
2017-06-09T11:51:52.355Z,98477
2017-06-09T11:54:20.463Z,98477
2017-06-09T11:56:49.302Z,98475
2017-06-09T11:59:17.414Z,98477
2017-06-09T12:01:45.500Z,98484
2017-06-09T12:04:13.588Z,98468
2017-06-09T12:06:41.671Z,98482
2017-06-09T12:09:09.738Z,98481
2017-06-09T12:11:37.822Z,98485
2017-06-09T12:14:05.892Z,98484
2017-06-09T12:16:33.994Z,98487
2017-06-09T12:19:02.062Z,98495
2017-06-09T12:21:30.127Z,98491
2017-06-09T12:23:58.206Z,98503
2017-06-09T12:26:26.314Z,98510
2017-06-09T12:28:54.486Z,98511
2017-06-09T12:31:22.558Z,98522
2017-06-09T12:33:50.643Z,98534
2017-06-09T12:36:18.710Z,98547
2017-06-09T12:38:46.787Z,98551
2017-06-09T12:41:14.849Z,98546
2017-06-09T12:43:42.920Z,98559
2017-06-09T12:46:10.994Z,98558
2017-06-09T12:48:39.079Z,98567
2017-06-09T12:51:07.178Z,98566
2017-06-09T12:53:35.253Z,98573
2017-06-09T12:56:03.341Z,98573
2017-06-09T12:58:31.398Z,98574
2017-06-09T13:00:59.473Z,98574
2017-06-09T13:03:27.543Z,98578
2017-06-09T13:05:55.614Z,98583
2017-06-09T13:08:23.714Z,98588
2017-06-09T13:10:51.781Z,98585
2017-06-09T13:13:19.854Z,98587
2017-06-09T13:15:47.926Z,98585
2017-06-09T13:18:16.002Z,98585
2017-06-09T13:20:44.070Z,98594
2017-06-09T13:23:12.166Z,98603
2017-06-09T13:25:40.253Z,98598
2017-06-09T13:28:08.327Z,98616
2017-06-09T13:30:36.418Z,98621
2017-06-09T13:33:05.285Z,98625
2017-06-09T13:35:33.358Z,98617
2017-06-09T13:38:01.435Z,98630
2017-06-09T13:40:29.510Z,98636
2017-06-09T13:42:57.579Z,98649
2017-06-09T13:45:25.669Z,98637
2017-06-09T13:47:54.502Z,98642
2017-06-09T13:50:22.614Z,98656
2017-06-09T13:52:50.686Z,98657
2017-06-09T13:55:18.746Z,98660
2017-06-09T13:57:46.830Z,98671
2017-06-09T14:00:15.007Z,98667
2017-06-09T14:02:43.082Z,98672
2017-06-09T14:05:11.154Z,98675
2017-06-09T14:07:39.251Z,98669
2017-06-09T14:10:08.094Z,98685
2017-06-09T14:12:36.158Z,98677
2017-06-09T14:15:04.238Z,98695
2017-06-09T14:17:32.335Z,98684
2017-06-09T14:20:00.754Z,98692
2017-06-09T14:22:28.817Z,98697
2017-06-09T14:24:56.906Z,98695
2017-06-09T14:27:24.970Z,98696
2017-06-09T14:29:53.045Z,98700
2017-06-09T14:32:21.138Z,98719
2017-06-09T14:34:49.330Z,98709
2017-06-09T14:37:17.550Z,98716
2017-06-09T14:39:46.426Z,98704
2017-06-09T14:42:14.485Z,98704
2017-06-09T14:44:42.558Z,98717
2017-06-09T14:47:10.658Z,98717
2017-06-09T14:49:39.498Z,98719
2017-06-09T14:52:07.585Z,98709
2017-06-09T14:54:35.690Z,98702
2017-06-09T14:57:04.558Z,98701
2017-06-09T14:59:32.639Z,98690
2017-06-09T15:02:00.711Z,98681
2017-06-09T15:04:28.821Z,98684
2017-06-09T15:06:56.886Z,98689
2017-06-09T15:09:24.986Z,98697
2017-06-09T15:11:53.070Z,98703
2017-06-09T15:14:21.130Z,98711
2017-06-09T15:16:49.249Z,98728
2017-06-09T15:19:17.306Z,98724
2017-06-09T15:21:45.398Z,98727
2017-06-09T15:24:13.459Z,98733
2017-06-09T15:26:41.531Z,98728
2017-06-09T15:29:09.606Z,98733
2017-06-09T15:31:37.675Z,98727
2017-06-09T15:34:05.750Z,98733
2017-06-09T15:36:33.866Z,98735
2017-06-09T15:39:02.533Z,98743
2017-06-09T15:41:30.678Z,98744
2017-06-09T15:43:58.739Z,98742
2017-06-09T15:46:26.827Z,98740
2017-06-09T15:48:54.884Z,98735
2017-06-09T15:51:22.954Z,98741
2017-06-09T15:53:51.966Z,98744
2017-06-09T15:56:20.050Z,98746
2017-06-09T15:58:48.114Z,98743
2017-06-09T16:01:16.206Z,98744
2017-06-09T16:03:45.034Z,98739
2017-06-09T16:06:13.142Z,98746
2017-06-09T16:08:41.223Z,98741
2017-06-09T16:11:09.290Z,98751
2017-06-09T16:13:37.367Z,98752
2017-06-09T16:16:05.426Z,98742
2017-06-09T16:18:33.508Z,98736
2017-06-09T16:21:01.582Z,98751
2017-06-09T16:23:29.678Z,98734
2017-06-09T16:25:58.510Z,98727
2017-06-09T16:28:26.619Z,98733
2017-06-09T16:30:54.710Z,98732
2017-06-09T16:33:23.545Z,98725
2017-06-09T16:35:51.618Z,98727
2017-06-09T16:38:19.686Z,98732
2017-06-09T16:40:47.757Z,98725
2017-06-09T16:43:15.832Z,98718
2017-06-09T16:45:43.907Z,98729
2017-06-09T16:48:11.979Z,98728
2017-06-09T16:50:40.046Z,98740
2017-06-09T16:53:08.172Z,98736
2017-06-09T16:55:36.234Z,98735
2017-06-09T16:58:04.319Z,98734
2017-06-09T17:00:32.378Z,98742
2017-06-09T17:03:00.454Z,98741
2017-06-09T17:05:28.584Z,98744
2017-06-09T17:07:56.962Z,98748
2017-06-09T17:10:25.030Z,98744
2017-06-09T17:12:53.089Z,98747
2017-06-09T17:15:21.164Z,98743
2017-06-09T17:17:49.239Z,98751
2017-06-09T17:20:17.320Z,98743
2017-06-09T17:22:45.378Z,98740
2017-06-09T17:25:13.458Z,98736
2017-06-09T17:27:41.515Z,98737
2017-06-09T17:30:09.619Z,98732
2017-06-09T17:32:37.725Z,98746
2017-06-09T17:35:05.798Z,98735
2017-06-09T17:37:33.902Z,98740
2017-06-09T17:40:02.802Z,98732
2017-06-09T17:42:30.936Z,98740
2017-06-09T17:44:59.006Z,98741
2017-06-09T17:47:27.083Z,98731
2017-06-09T17:49:55.155Z,98730
2017-06-09T17:52:24.032Z,98728
2017-06-09T17:54:52.095Z,98734
2017-06-09T17:57:20.196Z,98735
2017-06-09T17:59:48.266Z,98735
2017-06-09T18:02:16.360Z,98742
2017-06-09T18:04:45.211Z,98737
2017-06-09T18:07:13.283Z,98745
2017-06-09T18:09:41.355Z,98743
2017-06-09T18:12:09.431Z,98754
2017-06-09T18:14:37.506Z,98755
2017-06-09T18:17:05.578Z,98753
2017-06-09T18:19:33.663Z,98759
2017-06-09T18:22:01.734Z,98752
2017-06-09T18:24:29.803Z,98756
2017-06-09T18:29:56.471Z,98751
2017-06-09T18:32:24.546Z,98750
2017-06-09T18:34:52.621Z,98751
2017-06-09T18:37:20.695Z,98748
2017-06-09T18:39:48.755Z,98751
2017-06-09T18:42:16.839Z,98752
2017-06-09T18:44:44.911Z,98757
2017-06-09T18:47:12.998Z,98758
2017-06-09T18:49:41.826Z,98747
2017-06-09T18:52:09.912Z,98753
2017-06-09T18:54:37.987Z,98744
2017-06-09T18:57:06.096Z,98747
2017-06-09T18:59:34.259Z,98739
2017-06-09T19:02:02.327Z,98739
2017-06-09T19:04:30.419Z,98742
2017-06-09T19:06:59.291Z,98739
2017-06-09T19:09:27.363Z,98753
2017-06-09T19:11:55.438Z,98757
2017-06-09T19:14:23.511Z,98765
2017-06-09T19:16:51.606Z,98761
2017-06-09T19:19:20.438Z,98765
2017-06-09T19:21:48.519Z,98767
2017-06-09T19:24:16.590Z,98775
2017-06-09T19:26:44.691Z,98809
2017-06-09T19:29:12.762Z,98840
2017-06-09T19:31:40.857Z,98807
2017-06-09T19:34:09.702Z,98880
2017-06-09T19:36:37.906Z,98911
2017-06-09T19:39:05.979Z,98895
2017-06-09T19:41:34.047Z,98932
2017-06-09T19:44:02.567Z,98937
2017-06-09T19:46:30.630Z,98938
2017-06-09T19:48:59.495Z,98934
2017-06-09T19:51:27.580Z,98946
2017-06-09T19:53:56.419Z,98912
2017-06-09T19:56:24.495Z,98908
2017-06-09T19:58:52.566Z,98920
2017-06-09T20:01:20.641Z,98905
2017-06-09T20:03:48.723Z,98927
2017-06-09T20:06:16.803Z,98935
2017-06-09T20:08:44.867Z,98947
2017-06-09T20:11:12.975Z,98945
2017-06-09T20:13:41.034Z,98949
2017-06-09T20:16:09.106Z,98928
2017-06-09T20:18:37.182Z,98907
2017-06-09T20:21:05.251Z,98917
2017-06-09T20:23:33.327Z,98885
2017-06-09T20:28:58.454Z,98903
2017-06-09T20:31:26.519Z,98896
2017-06-09T20:33:54.610Z,98889
2017-06-09T20:36:23.444Z,98901
2017-06-09T20:38:51.518Z,98905
2017-06-09T20:41:19.588Z,98913
2017-06-09T20:43:47.679Z,98920
2017-06-09T20:46:15.770Z,98917
2017-06-09T20:48:43.846Z,98917
2017-06-09T20:51:11.920Z,98927
2017-06-09T20:53:39.986Z,98934
2017-06-09T20:56:08.054Z,98933
2017-06-09T20:58:36.127Z,98941
2017-06-09T21:01:04.192Z,98941
2017-06-09T21:03:32.262Z,98941
2017-06-09T21:06:00.338Z,98927
2017-06-09T21:08:28.422Z,98932
2017-06-09T21:10:56.478Z,98924
2017-06-09T21:13:24.555Z,98920
2017-06-09T21:15:52.627Z,98928
2017-06-09T21:18:20.691Z,98934
2017-06-09T21:20:48.771Z,98941
2017-06-09T21:23:16.842Z,98949
2017-06-09T21:25:44.915Z,98947
2017-06-09T21:28:12.991Z,98955
2017-06-09T21:30:41.059Z,98948
2017-06-09T21:33:09.131Z,98963
2017-06-09T21:35:37.202Z,98960
2017-06-09T21:38:05.276Z,98960
2017-06-09T21:40:33.369Z,98964
2017-06-09T21:43:01.435Z,98954
2017-06-09T21:45:29.506Z,98955
2017-06-09T21:47:57.594Z,98952
2017-06-09T21:50:25.758Z,98962
2017-06-09T21:52:53.814Z,98951
2017-06-09T21:55:21.887Z,98947
2017-06-09T21:57:49.959Z,98952
2017-06-09T22:00:18.031Z,98955
2017-06-09T22:02:46.095Z,98965
2017-06-09T22:05:14.167Z,98963
2017-06-09T22:07:42.235Z,98973
2017-06-09T22:10:10.318Z,98976
2017-06-09T22:12:38.414Z,98976
2017-06-09T22:15:06.471Z,98992
2017-06-09T22:17:34.555Z,98991
2017-06-09T22:20:02.621Z,98985
2017-06-09T22:22:30.698Z,98985
2017-06-09T22:24:58.768Z,98991
2017-06-09T22:27:26.854Z,98993
2017-06-09T22:29:54.932Z,98976
2017-06-09T22:32:23.766Z,98975
2017-06-09T22:34:51.838Z,98995
2017-06-09T22:37:19.914Z,99009
2017-06-09T22:39:47.982Z,99006
2017-06-09T22:42:16.106Z,99006
2017-06-09T22:44:44.175Z,99000
2017-06-09T22:47:12.342Z,98998
2017-06-09T22:49:40.426Z,99001
2017-06-09T22:52:08.519Z,99001
2017-06-09T22:54:37.351Z,99004
2017-06-09T22:57:05.435Z,98999
2017-06-09T22:59:33.510Z,99000
2017-06-09T23:02:01.626Z,99000
2017-06-09T23:04:30.451Z,98995
2017-06-09T23:06:58.523Z,98990
2017-06-09T23:09:26.590Z,98983
2017-06-09T23:11:54.667Z,98993
2017-06-09T23:14:22.739Z,98995
2017-06-09T23:16:50.850Z,98994
2017-06-09T23:19:18.930Z,98998
2017-06-09T23:21:46.999Z,99015
2017-06-09T23:24:15.075Z,99012
2017-06-09T23:26:48.670Z,99013
2017-06-09T23:29:16.750Z,99019
2017-06-09T23:31:44.810Z,99023
2017-06-09T23:34:12.894Z,99020
2017-06-09T23:36:40.970Z,99023
2017-06-09T23:39:09.943Z,99028
2017-06-09T23:41:38.011Z,99022
2017-06-09T23:44:06.078Z,99024
2017-06-09T23:46:34.150Z,99029
2017-06-09T23:49:02.222Z,99035
2017-06-09T23:51:30.294Z,99035
2017-06-09T23:53:58.382Z,99035
2017-06-09T23:56:26.454Z,99035
2017-06-09T23:58:54.527Z,99039
